sensor_id;sensor_type;location;lat;lon;timestamp;temperature;humidity
76291;DHT22;65100;46.884;17.410;2023-06-01T00:00:13;17.97;84.01
76291;DHT22;65100;46.884;17.410;2023-06-01T00:02:40;17.90;84.15
76291;DHT22;65100;46.884;17.410;2023-06-01T00:05:06;17.83;84.57
76291;DHT22;65100;46.884;17.410;2023-06-01T00:07:32;17.76;84.61
76291;DHT22;65100;46.884;17.410;2023-06-01T00:09:58;17.72;84.61
76291;DHT22;65100;46.884;17.410;2023-06-01T00:12:25;17.73;84.27
76291;DHT22;65100;46.884;17.410;2023-06-01T00:14:50;17.66;84.30
76291;DHT22;65100;46.884;17.410;2023-06-01T00:17:16;17.56;84.80
76291;DHT22;65100;46.884;17.410;2023-06-01T00:19:41;17.61;84.80
76291;DHT22;65100;46.884;17.410;2023-06-01T00:22:10;17.56;85.07
76291;DHT22;65100;46.884;17.410;2023-06-01T00:24:36;17.53;84.97
76291;DHT22;65100;46.884;17.410;2023-06-01T00:27:02;17.34;85.05
76291;DHT22;65100;46.884;17.410;2023-06-01T00:29:27;17.34;85.09
76291;DHT22;65100;46.884;17.410;2023-06-01T00:31:53;17.31;85.27
76291;DHT22;65100;46.884;17.410;2023-06-01T00:34:18;17.22;85.40
76291;DHT22;65100;46.884;17.410;2023-06-01T00:36:44;17.08;86.40
76291;DHT22;65100;46.884;17.410;2023-06-01T00:39:09;17.15;85.83
76291;DHT22;65100;46.884;17.410;2023-06-01T00:41:35;17.29;85.41
76291;DHT22;65100;46.884;17.410;2023-06-01T00:44:01;17.39;84.38
76291;DHT22;65100;46.884;17.410;2023-06-01T00:46:27;17.41;84.22
76291;DHT22;65100;46.884;17.410;2023-06-01T00:48:55;17.49;83.21
76291;DHT22;65100;46.884;17.410;2023-06-01T00:51:21;17.42;83.62
76291;DHT22;65100;46.884;17.410;2023-06-01T00:53:47;17.34;83.95
76291;DHT22;65100;46.884;17.410;2023-06-01T00:56:12;17.31;84.06
76291;DHT22;65100;46.884;17.410;2023-06-01T00:58:39;17.07;84.93
76291;DHT22;65100;46.884;17.410;2023-06-01T01:01:05;17.12;84.45
76291;DHT22;65100;46.884;17.410;2023-06-01T01:03:30;17.15;84.22
76291;DHT22;65100;46.884;17.410;2023-06-01T01:09:12;17.24;82.54
76291;DHT22;65100;46.884;17.410;2023-06-01T01:11:41;17.05;83.48
76291;DHT22;65100;46.884;17.410;2023-06-01T01:14:24;17.19;83.42
76291;DHT22;65100;46.884;17.410;2023-06-01T01:17:02;17.25;83.18
76291;DHT22;65100;46.884;17.410;2023-06-01T01:25:30;16.95;83.61
76291;DHT22;65100;46.884;17.410;2023-06-01T01:31:01;16.95;83.38
76291;DHT22;65100;46.884;17.410;2023-06-01T01:33:29;16.94;83.92
76291;DHT22;65100;46.884;17.410;2023-06-01T01:35:55;16.94;83.43
76291;DHT22;65100;46.884;17.410;2023-06-01T01:38:21;16.88;83.16
76291;DHT22;65100;46.884;17.410;2023-06-01T01:40:47;16.84;83.30
76291;DHT22;65100;46.884;17.410;2023-06-01T01:43:15;16.73;83.77
76291;DHT22;65100;46.884;17.410;2023-06-01T01:45:40;16.61;84.01
76291;DHT22;65100;46.884;17.410;2023-06-01T01:48:20;16.59;83.90
76291;DHT22;65100;46.884;17.410;2023-06-01T01:50:55;16.50;83.85
76291;DHT22;65100;46.884;17.410;2023-06-01T01:53:23;16.40;84.07
76291;DHT22;65100;46.884;17.410;2023-06-01T01:55:51;16.19;84.41
76291;DHT22;65100;46.884;17.410;2023-06-01T01:58:18;16.09;84.65
76291;DHT22;65100;46.884;17.410;2023-06-01T02:00:44;16.09;84.74
76291;DHT22;65100;46.884;17.410;2023-06-01T02:03:17;16.29;84.10
76291;DHT22;65100;46.884;17.410;2023-06-01T02:05:43;16.14;84.43
76291;DHT22;65100;46.884;17.410;2023-06-01T02:08:09;15.79;85.58
76291;DHT22;65100;46.884;17.410;2023-06-01T02:10:34;15.59;86.12
76291;DHT22;65100;46.884;17.410;2023-06-01T02:13:00;15.55;86.06
76291;DHT22;65100;46.884;17.410;2023-06-01T02:15:25;15.56;86.07
76291;DHT22;65100;46.884;17.410;2023-06-01T02:17:51;15.49;85.95
76291;DHT22;65100;46.884;17.410;2023-06-01T02:20:17;15.14;88.16
76291;DHT22;65100;46.884;17.410;2023-06-01T02:22:42;15.07;88.64
76291;DHT22;65100;46.884;17.410;2023-06-01T02:25:08;15.27;87.54
76291;DHT22;65100;46.884;17.410;2023-06-01T02:27:34;15.56;85.82
76291;DHT22;65100;46.884;17.410;2023-06-01T02:30:00;15.67;84.76
76291;DHT22;65100;46.884;17.410;2023-06-01T02:32:26;15.69;84.36
76291;DHT22;65100;46.884;17.410;2023-06-01T02:34:52;15.61;85.39
76291;DHT22;65100;46.884;17.410;2023-06-01T02:37:17;15.76;85.09
76291;DHT22;65100;46.884;17.410;2023-06-01T02:39:43;15.58;85.71
76291;DHT22;65100;46.884;17.410;2023-06-01T02:42:08;15.66;85.35
76291;DHT22;65100;46.884;17.410;2023-06-01T02:44:33;15.70;84.56
76291;DHT22;65100;46.884;17.410;2023-06-01T02:46:59;15.73;84.08
76291;DHT22;65100;46.884;17.410;2023-06-01T02:49:24;15.52;84.62
76291;DHT22;65100;46.884;17.410;2023-06-01T02:51:50;15.34;85.66
76291;DHT22;65100;46.884;17.410;2023-06-01T02:54:15;15.14;86.01
76291;DHT22;65100;46.884;17.410;2023-06-01T02:56:41;14.78;87.63
76291;DHT22;65100;46.884;17.410;2023-06-01T02:59:06;15.18;86.20
76291;DHT22;65100;46.884;17.410;2023-06-01T03:01:32;15.53;84.68
76291;DHT22;65100;46.884;17.410;2023-06-01T03:04:03;15.67;83.43
76291;DHT22;65100;46.884;17.410;2023-06-01T03:06:30;15.72;83.16
76291;DHT22;65100;46.884;17.410;2023-06-01T03:09:06;15.59;83.01
76291;DHT22;65100;46.884;17.410;2023-06-01T03:11:41;15.42;83.16
76291;DHT22;65100;46.884;17.410;2023-06-01T03:14:07;15.08;84.69
76291;DHT22;65100;46.884;17.410;2023-06-01T03:16:32;14.98;85.22
76291;DHT22;65100;46.884;17.410;2023-06-01T03:18:58;15.25;83.39
76291;DHT22;65100;46.884;17.410;2023-06-01T03:21:23;15.41;83.10
76291;DHT22;65100;46.884;17.410;2023-06-01T03:23:50;15.35;83.53
76291;DHT22;65100;46.884;17.410;2023-06-01T03:26:15;15.51;83.07
76291;DHT22;65100;46.884;17.410;2023-06-01T03:28:44;15.59;82.70
76291;DHT22;65100;46.884;17.410;2023-06-01T03:31:09;15.41;83.09
76291;DHT22;65100;46.884;17.410;2023-06-01T03:33:37;15.19;84.99
76291;DHT22;65100;46.884;17.410;2023-06-01T03:36:02;15.12;84.78
76291;DHT22;65100;46.884;17.410;2023-06-01T03:38:28;15.12;85.66
76291;DHT22;65100;46.884;17.410;2023-06-01T03:40:54;15.52;84.07
76291;DHT22;65100;46.884;17.410;2023-06-01T03:43:19;15.31;82.87
76291;DHT22;65100;46.884;17.410;2023-06-01T03:45:45;15.31;83.22
76291;DHT22;65100;46.884;17.410;2023-06-01T03:48:10;15.65;82.00
76291;DHT22;65100;46.884;17.410;2023-06-01T03:50:36;16.21;80.21
76291;DHT22;65100;46.884;17.410;2023-06-01T03:53:02;16.39;79.23
76291;DHT22;65100;46.884;17.410;2023-06-01T03:55:27;16.70;79.48
76291;DHT22;65100;46.884;17.410;2023-06-01T03:57:54;17.00;78.31
76291;DHT22;65100;46.884;17.410;2023-06-01T04:00:20;16.95;79.27
76291;DHT22;65100;46.884;17.410;2023-06-01T04:02:51;17.04;78.11
76291;DHT22;65100;46.884;17.410;2023-06-01T04:05:18;17.73;76.89
76291;DHT22;65100;46.884;17.410;2023-06-01T04:07:47;18.05;74.58
76291;DHT22;65100;46.884;17.410;2023-06-01T04:10:14;18.34;74.17
76291;DHT22;65100;46.884;17.410;2023-06-01T04:12:45;19.07;72.31
76291;DHT22;65100;46.884;17.410;2023-06-01T04:15:11;19.52;70.28
76291;DHT22;65100;46.884;17.410;2023-06-01T04:17:38;19.68;70.96
76291;DHT22;65100;46.884;17.410;2023-06-01T04:20:04;19.92;70.51
76291;DHT22;65100;46.884;17.410;2023-06-01T04:22:34;20.23;70.10
76291;DHT22;65100;46.884;17.410;2023-06-01T04:25:00;20.53;69.15
76291;DHT22;65100;46.884;17.410;2023-06-01T04:27:25;20.80;68.10
76291;DHT22;65100;46.884;17.410;2023-06-01T04:29:51;20.94;68.03
76291;DHT22;65100;46.884;17.410;2023-06-01T04:32:18;21.04;67.73
76291;DHT22;65100;46.884;17.410;2023-06-01T04:34:49;20.71;68.14
76291;DHT22;65100;46.884;17.410;2023-06-01T04:37:17;20.33;70.92
76291;DHT22;65100;46.884;17.410;2023-06-01T04:39:47;20.46;70.65
76291;DHT22;65100;46.884;17.410;2023-06-01T04:42:16;20.39;68.03
76291;DHT22;65100;46.884;17.410;2023-06-01T04:44:43;20.69;69.45
76291;DHT22;65100;46.884;17.410;2023-06-01T04:47:10;21.08;69.28
76291;DHT22;65100;46.884;17.410;2023-06-01T04:49:36;21.10;68.59
76291;DHT22;65100;46.884;17.410;2023-06-01T04:52:07;20.80;69.41
76291;DHT22;65100;46.884;17.410;2023-06-01T04:54:32;20.70;69.57
76291;DHT22;65100;46.884;17.410;2023-06-01T04:56:58;20.87;68.74
76291;DHT22;65100;46.884;17.410;2023-06-01T04:59:23;21.08;68.45
76291;DHT22;65100;46.884;17.410;2023-06-01T05:01:49;21.31;66.81
76291;DHT22;65100;46.884;17.410;2023-06-01T05:04:14;21.52;66.29
76291;DHT22;65100;46.884;17.410;2023-06-01T05:06:40;21.71;66.34
76291;DHT22;65100;46.884;17.410;2023-06-01T05:09:05;21.59;66.92
76291;DHT22;65100;46.884;17.410;2023-06-01T05:11:31;21.37;66.67
76291;DHT22;65100;46.884;17.410;2023-06-01T05:13:56;21.24;67.87
76291;DHT22;65100;46.884;17.410;2023-06-01T05:16:26;21.46;66.50
76291;DHT22;65100;46.884;17.410;2023-06-01T05:18:52;21.74;64.97
76291;DHT22;65100;46.884;17.410;2023-06-01T05:21:18;21.78;64.70
76291;DHT22;65100;46.884;17.410;2023-06-01T05:23:43;21.27;66.05
76291;DHT22;65100;46.884;17.410;2023-06-01T05:26:09;20.85;66.56
76291;DHT22;65100;46.884;17.410;2023-06-01T05:28:34;20.88;66.34
76291;DHT22;65100;46.884;17.410;2023-06-01T05:31:01;21.45;65.86
76291;DHT22;65100;46.884;17.410;2023-06-01T05:33:26;21.44;65.58
76291;DHT22;65100;46.884;17.410;2023-06-01T05:35:52;21.61;64.40
76291;DHT22;65100;46.884;17.410;2023-06-01T05:38:18;21.98;62.46
76291;DHT22;65100;46.884;17.410;2023-06-01T05:40:44;22.24;62.79
76291;DHT22;65100;46.884;17.410;2023-06-01T05:43:10;21.77;61.96
76291;DHT22;65100;46.884;17.410;2023-06-01T05:45:35;21.77;61.80
76291;DHT22;65100;46.884;17.410;2023-06-01T05:48:01;21.82;60.80
76291;DHT22;65100;46.884;17.410;2023-06-01T05:50:27;21.62;60.87
76291;DHT22;65100;46.884;17.410;2023-06-01T05:52:52;21.72;61.37
76291;DHT22;65100;46.884;17.410;2023-06-01T05:55:18;21.72;60.70
76291;DHT22;65100;46.884;17.410;2023-06-01T05:57:44;22.02;59.36
76291;DHT22;65100;46.884;17.410;2023-06-01T06:00:13;22.26;60.39
76291;DHT22;65100;46.884;17.410;2023-06-01T06:02:42;22.10;60.77
76291;DHT22;65100;46.884;17.410;2023-06-01T06:05:07;22.68;61.07
76291;DHT22;65100;46.884;17.410;2023-06-01T06:07:33;22.77;61.26
76291;DHT22;65100;46.884;17.410;2023-06-01T06:09:59;23.20;59.95
76291;DHT22;65100;46.884;17.410;2023-06-01T06:12:24;23.35;60.26
76291;DHT22;65100;46.884;17.410;2023-06-01T06:14:50;23.65;58.65
76291;DHT22;65100;46.884;17.410;2023-06-01T06:17:15;23.89;58.42
76291;DHT22;65100;46.884;17.410;2023-06-01T06:19:41;24.52;57.08
76291;DHT22;65100;46.884;17.410;2023-06-01T06:22:09;25.26;54.80
76291;DHT22;65100;46.884;17.410;2023-06-01T06:24:34;25.48;54.49
76291;DHT22;65100;46.884;17.410;2023-06-01T06:27:00;26.04;53.39
76291;DHT22;65100;46.884;17.410;2023-06-01T06:29:25;26.24;53.72
76291;DHT22;65100;46.884;17.410;2023-06-01T06:31:51;26.26;53.53
76291;DHT22;65100;46.884;17.410;2023-06-01T06:34:16;26.46;52.36
76291;DHT22;65100;46.884;17.410;2023-06-01T06:36:41;26.69;48.87
76291;DHT22;65100;46.884;17.410;2023-06-01T06:39:07;27.14;50.59
76291;DHT22;65100;46.884;17.410;2023-06-01T06:41:32;27.72;47.31
76291;DHT22;65100;46.884;17.410;2023-06-01T06:43:58;27.58;49.25
76291;DHT22;65100;46.884;17.410;2023-06-01T06:46:23;27.29;48.76
76291;DHT22;65100;46.884;17.410;2023-06-01T06:48:49;27.04;48.88
76291;DHT22;65100;46.884;17.410;2023-06-01T06:51:14;27.13;47.62
76291;DHT22;65100;46.884;17.410;2023-06-01T06:53:40;27.44;46.55
76291;DHT22;65100;46.884;17.410;2023-06-01T06:56:05;27.37;46.33
76291;DHT22;65100;46.884;17.410;2023-06-01T06:58:31;27.03;48.10
76291;DHT22;65100;46.884;17.410;2023-06-01T07:00:56;26.76;47.97
76291;DHT22;65100;46.884;17.410;2023-06-01T07:03:22;26.93;46.76
76291;DHT22;65100;46.884;17.410;2023-06-01T07:05:47;26.50;48.18
76291;DHT22;65100;46.884;17.410;2023-06-01T07:08:13;26.64;49.53
76291;DHT22;65100;46.884;17.410;2023-06-01T07:10:39;25.78;49.34
76291;DHT22;65100;46.884;17.410;2023-06-01T07:13:05;25.31;51.95
76291;DHT22;65100;46.884;17.410;2023-06-01T07:15:30;25.06;51.12
76291;DHT22;65100;46.884;17.410;2023-06-01T07:17:56;25.88;47.33
76291;DHT22;65100;46.884;17.410;2023-06-01T07:20:21;25.96;48.70
76291;DHT22;65100;46.884;17.410;2023-06-01T07:22:47;25.81;49.65
76291;DHT22;65100;46.884;17.410;2023-06-01T07:25:14;26.59;48.49
76291;DHT22;65100;46.884;17.410;2023-06-01T07:27:40;27.51;47.80
76291;DHT22;65100;46.884;17.410;2023-06-01T07:30:09;27.36;48.11
76291;DHT22;65100;46.884;17.410;2023-06-01T07:32:35;26.92;47.03
76291;DHT22;65100;46.884;17.410;2023-06-01T07:35:01;26.56;50.74
76291;DHT22;65100;46.884;17.410;2023-06-01T07:37:27;26.35;49.57
76291;DHT22;65100;46.884;17.410;2023-06-01T07:39:53;26.80;49.28
76291;DHT22;65100;46.884;17.410;2023-06-01T07:42:19;26.82;48.02
76291;DHT22;65100;46.884;17.410;2023-06-01T07:44:45;26.78;45.65
76291;DHT22;65100;46.884;17.410;2023-06-01T07:47:11;27.34;45.85
76291;DHT22;65100;46.884;17.410;2023-06-01T07:49:37;27.62;46.82
76291;DHT22;65100;46.884;17.410;2023-06-01T07:52:06;27.80;45.76
76291;DHT22;65100;46.884;17.410;2023-06-01T07:54:33;27.20;45.49
76291;DHT22;65100;46.884;17.410;2023-06-01T07:56:58;27.29;46.38
76291;DHT22;65100;46.884;17.410;2023-06-01T07:59:45;27.95;47.41
76291;DHT22;65100;46.884;17.410;2023-06-01T08:02:31;28.59;44.11
76291;DHT22;65100;46.884;17.410;2023-06-01T08:04:56;27.72;45.88
76291;DHT22;65100;46.884;17.410;2023-06-01T08:07:22;27.13;47.28
76291;DHT22;65100;46.884;17.410;2023-06-01T08:09:48;26.86;47.07
76291;DHT22;65100;46.884;17.410;2023-06-01T08:12:14;26.97;47.05
76291;DHT22;65100;46.884;17.410;2023-06-01T08:14:39;27.58;47.55
76291;DHT22;65100;46.884;17.410;2023-06-01T08:17:06;27.11;45.90
76291;DHT22;65100;46.884;17.410;2023-06-01T08:19:32;27.31;47.04
76291;DHT22;65100;46.884;17.410;2023-06-01T08:21:58;27.47;48.72
76291;DHT22;65100;46.884;17.410;2023-06-01T08:24:24;27.04;46.40
76291;DHT22;65100;46.884;17.410;2023-06-01T08:26:54;26.09;50.32
76291;DHT22;65100;46.884;17.410;2023-06-01T08:29:19;25.88;48.30
76291;DHT22;65100;46.884;17.410;2023-06-01T08:31:45;26.04;47.79
76291;DHT22;65100;46.884;17.410;2023-06-01T08:34:11;25.89;49.11
76291;DHT22;65100;46.884;17.410;2023-06-01T08:36:36;25.82;46.53
76291;DHT22;65100;46.884;17.410;2023-06-01T08:39:19;25.60;48.54
76291;DHT22;65100;46.884;17.410;2023-06-01T08:41:54;25.75;46.61
76291;DHT22;65100;46.884;17.410;2023-06-01T08:44:26;26.14;48.07
76291;DHT22;65100;46.884;17.410;2023-06-01T08:46:54;26.48;50.64
76291;DHT22;65100;46.884;17.410;2023-06-01T08:49:21;26.24;47.17
76291;DHT22;65100;46.884;17.410;2023-06-01T08:51:51;26.55;47.35
76291;DHT22;65100;46.884;17.410;2023-06-01T08:54:20;26.48;46.60
76291;DHT22;65100;46.884;17.410;2023-06-01T08:56:45;26.49;47.20
76291;DHT22;65100;46.884;17.410;2023-06-01T08:59:11;26.64;48.24
76291;DHT22;65100;46.884;17.410;2023-06-01T09:01:39;26.86;47.21
76291;DHT22;65100;46.884;17.410;2023-06-01T09:04:04;26.16;46.93
76291;DHT22;65100;46.884;17.410;2023-06-01T09:06:30;26.39;48.92
76291;DHT22;65100;46.884;17.410;2023-06-01T09:08:56;26.06;52.27
76291;DHT22;65100;46.884;17.410;2023-06-01T09:11:22;26.01;52.32
76291;DHT22;65100;46.884;17.410;2023-06-01T09:13:47;26.33;51.28
76291;DHT22;65100;46.884;17.410;2023-06-01T09:16:13;26.39;51.29
76291;DHT22;65100;46.884;17.410;2023-06-01T09:18:52;26.94;47.96
76291;DHT22;65100;46.884;17.410;2023-06-01T09:21:18;26.70;48.68
76291;DHT22;65100;46.884;17.410;2023-06-01T09:23:44;26.90;49.28
76291;DHT22;65100;46.884;17.410;2023-06-01T09:26:11;26.53;49.67
76291;DHT22;65100;46.884;17.410;2023-06-01T09:31:37;26.68;46.85
76291;DHT22;65100;46.884;17.410;2023-06-01T09:34:04;26.93;48.95
76291;DHT22;65100;46.884;17.410;2023-06-01T09:36:29;26.57;43.19
76291;DHT22;65100;46.884;17.410;2023-06-01T09:39:09;26.69;43.86
76291;DHT22;65100;46.884;17.410;2023-06-01T09:41:55;27.18;42.68
76291;DHT22;65100;46.884;17.410;2023-06-01T09:44:32;27.27;41.38
76291;DHT22;65100;46.884;17.410;2023-06-01T09:46:59;27.17;41.29
76291;DHT22;65100;46.884;17.410;2023-06-01T09:54:40;26.76;42.22
76291;DHT22;65100;46.884;17.410;2023-06-01T09:57:06;26.40;45.07
76291;DHT22;65100;46.884;17.410;2023-06-01T09:59:42;26.82;49.04
76291;DHT22;65100;46.884;17.410;2023-06-01T10:02:29;26.92;45.88
76291;DHT22;65100;46.884;17.410;2023-06-01T10:04:56;26.87;44.83
76291;DHT22;65100;46.884;17.410;2023-06-01T10:07:30;26.38;45.56
76291;DHT22;65100;46.884;17.410;2023-06-01T10:09:58;26.52;47.29
76291;DHT22;65100;46.884;17.410;2023-06-01T10:12:27;26.21;43.27
76291;DHT22;65100;46.884;17.410;2023-06-01T10:14:54;26.08;43.08
76291;DHT22;65100;46.884;17.410;2023-06-01T10:17:20;26.18;43.62
76291;DHT22;65100;46.884;17.410;2023-06-01T10:19:46;26.39;46.01
76291;DHT22;65100;46.884;17.410;2023-06-01T10:22:12;26.53;45.72
76291;DHT22;65100;46.884;17.410;2023-06-01T10:24:38;26.83;42.87
76291;DHT22;65100;46.884;17.410;2023-06-01T10:29:41;26.73;46.58
76291;DHT22;65100;46.884;17.410;2023-06-01T10:35:02;26.84;45.71
76291;DHT22;65100;46.884;17.410;2023-06-01T10:37:28;26.38;43.12
76291;DHT22;65100;46.884;17.410;2023-06-01T10:40:11;26.69;45.27
76291;DHT22;65100;46.884;17.410;2023-06-01T10:42:44;26.86;44.08
76291;DHT22;65100;46.884;17.410;2023-06-01T10:45:36;27.17;44.21
76291;DHT22;65100;46.884;17.410;2023-06-01T10:48:04;26.69;43.23
76291;DHT22;65100;46.884;17.410;2023-06-01T10:50:30;27.08;43.37
76291;DHT22;65100;46.884;17.410;2023-06-01T10:52:56;27.08;42.88
76291;DHT22;65100;46.884;17.410;2023-06-01T10:55:25;27.22;40.66
76291;DHT22;65100;46.884;17.410;2023-06-01T10:57:52;27.38;41.30
76291;DHT22;65100;46.884;17.410;2023-06-01T11:00:40;27.13;43.74
76291;DHT22;65100;46.884;17.410;2023-06-01T11:03:06;26.84;43.06
76291;DHT22;65100;46.884;17.410;2023-06-01T11:05:44;26.69;41.44
76291;DHT22;65100;46.884;17.410;2023-06-01T11:13:18;26.29;42.57
76291;DHT22;65100;46.884;17.410;2023-06-01T11:21:22;26.26;42.65
76291;DHT22;65100;46.884;17.410;2023-06-01T11:23:49;26.46;44.33
76291;DHT22;65100;46.884;17.410;2023-06-01T11:26:16;26.35;42.08
76291;DHT22;65100;46.884;17.410;2023-06-01T11:28:42;26.38;43.44
76291;DHT22;65100;46.884;17.410;2023-06-01T11:31:12;26.72;44.41
76291;DHT22;65100;46.884;17.410;2023-06-01T11:33:39;26.90;44.73
76291;DHT22;65100;46.884;17.410;2023-06-01T11:36:07;26.73;41.72
76291;DHT22;65100;46.884;17.410;2023-06-01T11:38:39;27.03;44.13
76291;DHT22;65100;46.884;17.410;2023-06-01T11:41:07;27.00;42.24
76291;DHT22;65100;46.884;17.410;2023-06-01T11:43:33;27.31;43.07
76291;DHT22;65100;46.884;17.410;2023-06-01T11:46:06;27.18;42.95
76291;DHT22;65100;46.884;17.410;2023-06-01T11:48:34;27.31;41.76
76291;DHT22;65100;46.884;17.410;2023-06-01T11:51:00;27.26;43.38
76291;DHT22;65100;46.884;17.410;2023-06-01T11:53:27;27.07;44.37
76291;DHT22;65100;46.884;17.410;2023-06-01T11:55:55;27.47;44.02
76291;DHT22;65100;46.884;17.410;2023-06-01T11:58:28;27.43;45.93
76291;DHT22;65100;46.884;17.410;2023-06-01T12:00:54;27.65;44.57
76291;DHT22;65100;46.884;17.410;2023-06-01T12:03:21;27.54;43.37
76291;DHT22;65100;46.884;17.410;2023-06-01T12:05:46;27.53;42.74
76291;DHT22;65100;46.884;17.410;2023-06-01T12:08:17;27.33;42.61
76291;DHT22;65100;46.884;17.410;2023-06-01T12:10:47;27.40;44.24
76291;DHT22;65100;46.884;17.410;2023-06-01T12:13:17;27.37;44.44
76291;DHT22;65100;46.884;17.410;2023-06-01T12:15:46;27.17;43.06
76291;DHT22;65100;46.884;17.410;2023-06-01T12:18:12;27.27;43.98
76291;DHT22;65100;46.884;17.410;2023-06-01T12:20:39;27.50;44.68
76291;DHT22;65100;46.884;17.410;2023-06-01T12:25:35;27.77;54.29
76291;DHT22;65100;46.884;17.410;2023-06-01T12:28:06;27.65;44.33
76291;DHT22;65100;46.884;17.410;2023-06-01T12:30:32;27.70;50.56
76291;DHT22;65100;46.884;17.410;2023-06-01T12:32:59;27.70;50.15
76291;DHT22;65100;46.884;17.410;2023-06-01T12:35:25;27.72;50.74
76291;DHT22;65100;46.884;17.410;2023-06-01T12:40:28;27.68;49.04
76291;DHT22;65100;46.884;17.410;2023-06-01T12:42:54;27.65;42.19
76291;DHT22;65100;46.884;17.410;2023-06-01T12:45:20;27.61;48.46
76291;DHT22;65100;46.884;17.410;2023-06-01T12:47:45;27.58;44.58
76291;DHT22;65100;46.884;17.410;2023-06-01T12:50:12;27.61;48.53
76291;DHT22;65100;46.884;17.410;2023-06-01T12:52:40;27.55;47.27
76291;DHT22;65100;46.884;17.410;2023-06-01T12:55:06;27.46;45.97
76291;DHT22;65100;46.884;17.410;2023-06-01T12:57:34;27.33;46.59
76291;DHT22;65100;46.884;17.410;2023-06-01T13:00:00;27.46;45.79
76291;DHT22;65100;46.884;17.410;2023-06-01T13:02:25;27.51;41.05
76291;DHT22;65100;46.884;17.410;2023-06-01T13:04:52;27.48;41.81
76291;DHT22;65100;46.884;17.410;2023-06-01T13:07:19;27.58;46.77
76291;DHT22;65100;46.884;17.410;2023-06-01T13:09:47;27.17;43.64
76291;DHT22;65100;46.884;17.410;2023-06-01T13:12:12;27.24;38.64
76291;DHT22;65100;46.884;17.410;2023-06-01T13:14:38;27.37;47.64
76291;DHT22;65100;46.884;17.410;2023-06-01T13:17:04;27.36;45.62
76291;DHT22;65100;46.884;17.410;2023-06-01T13:19:29;27.46;48.07
76291;DHT22;65100;46.884;17.410;2023-06-01T13:21:55;27.38;49.00
76291;DHT22;65100;46.884;17.410;2023-06-01T13:24:21;27.48;44.80
76291;DHT22;65100;46.884;17.410;2023-06-01T13:26:47;27.33;39.27
76291;DHT22;65100;46.884;17.410;2023-06-01T13:29:13;27.10;47.64
76291;DHT22;65100;46.884;17.410;2023-06-01T13:31:38;27.23;44.32
76291;DHT22;65100;46.884;17.410;2023-06-01T13:34:04;27.37;44.72
76291;DHT22;65100;46.884;17.410;2023-06-01T13:36:30;27.36;48.54
76291;DHT22;65100;46.884;17.410;2023-06-01T13:38:55;27.08;44.51
76291;DHT22;65100;46.884;17.410;2023-06-01T13:41:21;27.20;47.43
76291;DHT22;65100;46.884;17.410;2023-06-01T13:43:47;26.99;45.09
76291;DHT22;65100;46.884;17.410;2023-06-01T13:46:12;27.00;44.64
76291;DHT22;65100;46.884;17.410;2023-06-01T13:48:38;26.63;42.11
76291;DHT22;65100;46.884;17.410;2023-06-01T13:51:07;26.70;41.74
76291;DHT22;65100;46.884;17.410;2023-06-01T13:53:33;26.69;43.36
76291;DHT22;65100;46.884;17.410;2023-06-01T13:55:59;26.69;40.43
76291;DHT22;65100;46.884;17.410;2023-06-01T13:58:25;26.97;39.67
76291;DHT22;65100;46.884;17.410;2023-06-01T14:00:51;27.10;41.37
76291;DHT22;65100;46.884;17.410;2023-06-01T14:03:16;27.13;40.54
76291;DHT22;65100;46.884;17.410;2023-06-01T14:05:42;27.14;39.97
76291;DHT22;65100;46.884;17.410;2023-06-01T14:08:07;27.04;39.74
76291;DHT22;65100;46.884;17.410;2023-06-01T14:10:33;27.16;42.13
76291;DHT22;65100;46.884;17.410;2023-06-01T14:13:00;27.31;42.29
76291;DHT22;65100;46.884;17.410;2023-06-01T14:15:25;27.43;43.38
76291;DHT22;65100;46.884;17.410;2023-06-01T14:17:51;27.54;42.06
76291;DHT22;65100;46.884;17.410;2023-06-01T14:20:17;27.31;41.79
76291;DHT22;65100;46.884;17.410;2023-06-01T14:22:42;27.08;41.66
76291;DHT22;65100;46.884;17.410;2023-06-01T14:25:08;27.13;40.97
76291;DHT22;65100;46.884;17.410;2023-06-01T14:27:34;26.97;41.76
76291;DHT22;65100;46.884;17.410;2023-06-01T14:30:01;26.82;43.16
76291;DHT22;65100;46.884;17.410;2023-06-01T14:32:28;27.02;39.84
76291;DHT22;65100;46.884;17.410;2023-06-01T14:34:54;26.83;41.11
76291;DHT22;65100;46.884;17.410;2023-06-01T14:37:19;26.82;40.28
76291;DHT22;65100;46.884;17.410;2023-06-01T14:39:45;26.96;41.34
76291;DHT22;65100;46.884;17.410;2023-06-01T14:42:11;26.78;39.78
76291;DHT22;65100;46.884;17.410;2023-06-01T14:44:37;26.97;38.83
76291;DHT22;65100;46.884;17.410;2023-06-01T14:47:02;27.10;42.55
76291;DHT22;65100;46.884;17.410;2023-06-01T14:49:28;27.13;42.11
76291;DHT22;65100;46.884;17.410;2023-06-01T14:51:53;27.16;43.00
76291;DHT22;65100;46.884;17.410;2023-06-01T14:54:19;27.13;43.32
76291;DHT22;65100;46.884;17.410;2023-06-01T14:56:44;27.29;41.07
76291;DHT22;65100;46.884;17.410;2023-06-01T14:59:10;27.16;39.72
76291;DHT22;65100;46.884;17.410;2023-06-01T15:01:35;27.16;41.75
76291;DHT22;65100;46.884;17.410;2023-06-01T15:04:01;27.30;42.14
76291;DHT22;65100;46.884;17.410;2023-06-01T15:06:26;27.34;38.82
76291;DHT22;65100;46.884;17.410;2023-06-01T15:08:51;27.02;39.28
76291;DHT22;65100;46.884;17.410;2023-06-01T15:11:17;27.10;41.58
76291;DHT22;65100;46.884;17.410;2023-06-01T15:13:42;27.00;41.70
76291;DHT22;65100;46.884;17.410;2023-06-01T15:16:08;27.07;42.01
76291;DHT22;65100;46.884;17.410;2023-06-01T15:18:34;26.90;41.56
76291;DHT22;65100;46.884;17.410;2023-06-01T15:20:59;26.87;42.51
76291;DHT22;65100;46.884;17.410;2023-06-01T15:23:26;26.97;42.11
76291;DHT22;65100;46.884;17.410;2023-06-01T15:25:53;26.78;40.12
76291;DHT22;65100;46.884;17.410;2023-06-01T15:28:18;26.86;41.49
76291;DHT22;65100;46.884;17.410;2023-06-01T15:30:44;26.90;41.83
76291;DHT22;65100;46.884;17.410;2023-06-01T15:33:10;27.02;42.39
76291;DHT22;65100;46.884;17.410;2023-06-01T15:35:35;27.04;41.63
76291;DHT22;65100;46.884;17.410;2023-06-01T15:38:01;27.06;41.49
76291;DHT22;65100;46.884;17.410;2023-06-01T15:40:26;27.08;43.85
76291;DHT22;65100;46.884;17.410;2023-06-01T15:42:52;26.90;39.95
76291;DHT22;65100;46.884;17.410;2023-06-01T15:45:17;26.62;40.92
76291;DHT22;65100;46.884;17.410;2023-06-01T15:47:43;26.48;42.31
76291;DHT22;65100;46.884;17.410;2023-06-01T15:50:08;26.68;42.03
76291;DHT22;65100;46.884;17.410;2023-06-01T15:52:34;26.76;42.73
76291;DHT22;65100;46.884;17.410;2023-06-01T15:55:00;26.69;44.56